Time;durP1;ratioP1;P1;durP2;ratioP2;P2;SDS_P1;SDS_P2;PMS_P1;PMS_P2;Temp;Humidity;BMP_temperature;BMP_pressure;BME280_temperature;BME280_humidity;BME280_pressure;Samples;Min_cycle;Max_cycle;Signal;HPM_P1;HPM_P2
2022/09/05 00:01:02;;;;;;;3.45;2.60;;;;;;;17.34;100.00;97040.63;5163339;27;20196;-54
2022/09/05 00:03:34;;;;;;;3.92;2.63;;;;;;;17.33;100.00;97038.97;5159424;27;20248;-53
2022/09/05 00:06:06;;;;;;;3.00;2.80;;;;;;;17.25;100.00;97034.50;5159889;27;20215;-54
2022/09/05 00:08:43;;;;;;;3.50;2.75;;;;;;;17.19;100.00;97037.03;5156235;27;20263;-53
2022/09/05 00:11:15;;;;;;;3.25;3.00;;;;;;;17.17;100.00;97028.38;5153646;27;20206;-53
2022/09/05 00:13:45;;;;;;;3.00;2.75;;;;;;;17.16;100.00;97032.03;5160128;27;20296;-54
2022/09/05 00:16:28;;;;;;;3.53;2.65;;;;;;;17.11;100.00;97029.88;5159774;27;20227;-53
2022/09/05 00:19:01;;;;;;;3.05;2.72;;;;;;;17.09;100.00;97023.06;5159396;27;20246;-52
2022/09/05 00:21:39;;;;;;;6.40;2.80;;;;;;;17.06;100.00;97028.75;5140972;27;20275;-53
2022/09/05 00:24:19;;;;;;;3.13;2.83;;;;;;;17.01;100.00;97025.75;5159693;27;20204;-52
2022/09/05 00:26:53;;;;;;;3.17;2.85;;;;;;;17.01;100.00;97023.91;5151373;27;20608;-53
2022/09/05 00:29:31;;;;;;;3.22;2.70;;;;;;;16.95;100.00;97021.94;5139906;27;20674;-53
2022/09/05 00:32:02;;;;;;;3.88;3.05;;;;;;;16.91;100.00;97021.47;5159783;27;20238;-53
2022/09/05 00:34:54;;;;;;;3.00;2.80;;;;;;;16.93;100.00;97024.78;5140004;27;20228;-54
2022/09/05 00:37:31;;;;;;;3.20;2.97;;;;;;;16.91;100.00;97025.97;5138586;27;20599;-54
2022/09/05 00:40:13;;;;;;;3.10;2.90;;;;;;;16.87;100.00;97021.97;5138380;27;20200;-54
2022/09/05 00:42:40;;;;;;;4.10;3.00;;;;;;;16.86;100.00;97018.47;5145010;27;20700;-55
2022/09/05 00:45:07;;;;;;;3.90;3.05;;;;;;;16.93;100.00;97023.97;5156168;27;20203;-53
2022/09/05 00:47:41;;;;;;;6.60;3.13;;;;;;;16.93;100.00;97024.78;5158332;27;20281;-54
2022/09/05 00:50:11;;;;;;;6.35;3.15;;;;;;;16.90;100.00;97019.78;5159192;27;20200;-54
2022/09/05 00:52:42;;;;;;;5.38;3.00;;;;;;;16.86;100.00;97017.66;5158641;27;20627;-51
2022/09/05 00:55:21;;;;;;;3.95;3.55;;;;;;;16.87;100.00;97019.31;5159033;27;20611;-55
2022/09/05 00:58:11;;;;;;;4.25;2.92;;;;;;;16.80;100.00;97019.16;5150115;27;20227;-53
2022/09/05 01:00:45;;;;;;;4.00;3.28;;;;;;;16.82;100.00;97025.19;5157064;27;20192;-54
2022/09/05 01:03:32;;;;;;;5.10;2.72;;;;;;;16.80;100.00;97029.00;5158141;27;20571;-55
2022/09/05 01:06:16;;;;;;;3.33;3.03;;;;;;;16.75;100.00;97021.53;5158637;27;20594;-52
2022/09/05 01:09:27;;;;;;;4.25;3.17;;;;;;;16.72;100.00;97032.53;5156607;27;20235;-53
2022/09/05 01:12:26;;;;;;;4.57;2.97;;;;;;;16.65;100.00;97031.56;5133580;27;20243;-54
2022/09/05 01:15:11;;;;;;;4.78;3.00;;;;;;;16.65;100.00;97030.75;5158360;27;20681;-53
2022/09/05 01:17:48;;;;;;;4.35;2.80;;;;;;;16.57;100.00;97028.94;5157321;27;20235;-54
2022/09/05 01:20:29;;;;;;;3.50;3.20;;;;;;;16.64;100.00;97039.75;5158143;27;20199;-53
2022/09/05 01:23:23;;;;;;;3.38;3.10;;;;;;;16.57;100.00;97034.28;5157846;27;20227;-55
2022/09/05 01:26:17;;;;;;;2.92;2.70;;;;;;;16.56;100.00;97040.59;5157190;27;20246;-54
2022/09/05 01:28:50;;;;;;;4.10;2.60;;;;;;;16.58;100.00;97032.44;5157530;27;20260;-54
2022/09/05 01:31:23;;;;;;;3.35;3.05;;;;;;;16.59;100.00;97026.91;5155285;27;20200;-52
2022/09/05 01:33:54;;;;;;;3.60;3.00;;;;;;;16.54;100.00;97034.59;5159206;27;20196;-50
2022/09/05 01:36:30;;;;;;;4.00;2.90;;;;;;;16.60;100.00;97027.75;5158355;27;20606;-52
2022/09/05 01:39:04;;;;;;;3.67;2.70;;;;;;;16.56;100.00;97027.25;5154739;27;20700;-51
2022/09/05 01:41:45;;;;;;;5.13;3.13;;;;;;;16.49;100.00;97031.56;5146919;27;20510;-50
2022/09/05 01:44:27;;;;;;;3.17;2.90;;;;;;;16.51;100.00;97026.88;5143580;27;20200;-50
2022/09/05 01:47:02;;;;;;;3.40;3.10;;;;;;;16.46;100.00;97023.91;5155691;27;20211;-51
2022/09/05 01:49:41;;;;;;;2.80;2.60;;;;;;;16.45;100.00;97022.25;5146136;27;20238;-52
2022/09/05 01:52:25;;;;;;;3.30;3.00;;;;;;;16.40;100.00;97021.94;5156790;27;20199;-51
2022/09/05 01:55:05;;;;;;;3.40;3.10;;;;;;;16.42;100.00;97018.09;5157071;27;20286;-50
2022/09/05 01:57:39;;;;;;;2.80;2.60;;;;;;;16.44;100.00;97020.56;5157028;27;20234;-51
2022/09/05 02:00:11;;;;;;;2.90;2.60;;;;;;;16.33;100.00;97018.28;5157071;27;20226;-51
2022/09/05 02:02:46;;;;;;;4.70;2.70;;;;;;;16.28;100.00;97020.59;5156188;27;20591;-51
2022/09/05 02:05:45;;;;;;;2.90;2.60;;;;;;;16.37;100.00;97011.56;5157022;27;20437;-51
2022/09/05 02:08:24;;;;;;;2.88;2.72;;;;;;;16.25;100.00;97020.94;5155519;27;20535;-51
2022/09/05 02:11:01;;;;;;;4.70;2.88;;;;;;;16.23;100.00;97009.59;5177085;27;20171;-52
2022/09/05 02:13:42;;;;;;;3.15;2.80;;;;;;;16.20;100.00;97012.59;5179716;27;20195;-51
2022/09/05 02:16:18;;;;;;;3.47;2.70;;;;;;;16.13;100.00;97007.09;5168834;27;20184;-52
2022/09/05 02:18:52;;;;;;;3.13;2.80;;;;;;;16.07;100.00;97006.94;5137040;27;20185;-50
2022/09/05 02:21:24;;;;;;;2.97;2.50;;;;;;;16.11;100.00;97009.13;5140491;27;20199;-51
2022/09/05 02:24:03;;;;;;;5.10;3.00;;;;;;;16.12;100.00;97007.28;5156294;27;20203;-50
2022/09/05 02:26:33;;;;;;;3.20;3.00;;;;;;;16.09;100.00;97012.94;5156792;27;20242;-51
2022/09/05 02:29:01;;;;;;;3.20;2.90;;;;;;;16.06;100.00;97007.94;5154744;27;20715;-51
2022/09/05 02:31:33;;;;;;;3.72;2.97;;;;;;;16.08;100.00;97005.97;5144426;27;20214;-50
2022/09/05 02:34:04;;;;;;;4.15;2.75;;;;;;;16.08;100.00;97005.97;5156387;27;20192;-51
2022/09/05 02:36:36;;;;;;;4.43;2.83;;;;;;;16.11;100.00;97006.47;5145417;27;20231;-52
2022/09/05 02:39:06;;;;;;;3.10;2.88;;;;;;;16.14;100.00;97003.44;5155898;27;20670;-51
2022/09/05 02:41:37;;;;;;;3.08;2.88;;;;;;;16.05;100.00;96995.63;5156327;27;20238;-52
2022/09/05 02:44:09;;;;;;;4.43;3.10;;;;;;;15.98;100.00;97000.78;5148510;27;20255;-51
2022/09/05 02:46:44;;;;;;;3.22;3.03;;;;;;;15.93;100.00;96998.63;5148241;27;20247;-51
2022/09/05 02:49:12;;;;;;;3.60;3.00;;;;;;;15.96;100.00;96996.63;5142809;27;20234;-51
2022/09/05 02:51:44;;;;;;;2.95;2.67;;;;;;;15.94;100.00;96994.13;5156447;27;20227;-51
2022/09/05 02:54:15;;;;;;;3.20;2.97;;;;;;;15.91;100.00;96992.63;5148258;27;20292;-51
2022/09/05 02:56:55;;;;;;;3.40;3.08;;;;;;;15.94;100.00;97000.28;5143502;27;20203;-51
2022/09/05 02:59:34;;;;;;;3.05;2.80;;;;;;;15.91;100.00;96994.44;5156369;27;20215;-51
2022/09/05 03:02:11;;;;;;;3.50;3.20;;;;;;;15.89;100.00;96993.78;5137789;27;20256;-51
2022/09/05 03:04:43;;;;;;;3.20;3.00;;;;;;;15.86;100.00;96992.31;5137887;27;20538;-52
2022/09/05 03:07:34;;;;;;;2.92;2.72;;;;;;;15.81;100.00;97005.28;5156167;27;20262;-52
2022/09/05 03:10:12;;;;;;;3.30;3.00;;;;;;;15.78;100.00;96994.97;5140478;27;20279;-52
2022/09/05 03:13:01;;;;;;;4.38;3.25;;;;;;;15.80;100.00;97002.81;5155977;27;20210;-52
2022/09/05 03:16:06;;;;;;;5.28;3.55;;;;;;;15.81;100.00;96999.97;5146389;27;20250;-52
2022/09/05 03:19:04;;;;;;;3.20;3.00;;;;;;;15.81;100.00;96999.97;5143910;27;20582;-49
2022/09/05 03:22:04;;;;;;;3.55;3.17;;;;;;;15.74;100.00;96995.47;5155932;27;20642;-51
2022/09/05 03:24:56;;;;;;;3.70;3.20;;;;;;;15.70;100.00;97000.28;5135128;27;20341;-52
2022/09/05 03:27:53;;;;;;;3.93;3.37;;;;;;;15.79;100.00;96996.63;5149130;27;20306;-51
2022/09/05 03:30:20;;;;;;;3.65;3.45;;;;;;;15.77;100.00;97003.13;5153968;27;20287;-50
2022/09/05 03:33:29;;;;;;;5.65;3.47;;;;;;;15.70;100.00;97002.94;5155955;27;20231;-50
2022/09/05 03:36:30;;;;;;;3.45;3.08;;;;;;;15.74;100.00;97004.28;5156237;27;20295;-51
2022/09/05 03:39:42;;;;;;;3.60;3.30;;;;;;;15.70;100.00;97004.78;5141942;27;20204;-52
2022/09/05 03:42:25;;;;;;;4.00;3.30;;;;;;;15.64;100.00;97000.97;5155890;27;20211;-51
2022/09/05 03:45:00;;;;;;;3.38;3.13;;;;;;;15.67;100.00;96997.13;5155947;27;20253;-51
2022/09/05 03:47:51;;;;;;;3.55;3.33;;;;;;;15.65;100.00;96999.97;5155810;27;20230;-52
2022/09/05 03:50:24;;;;;;;4.20;3.53;;;;;;;15.63;100.00;97001.94;5146094;27;20276;-50
2022/09/05 03:53:04;;;;;;;3.92;3.58;;;;;;;15.60;100.00;97002.28;5156480;27;20566;-51
2022/09/05 03:55:42;;;;;;;4.20;3.60;;;;;;;15.69;100.00;97001.31;5159227;27;20219;-50
2022/09/05 03:58:34;;;;;;;3.75;3.45;;;;;;;15.65;100.00;97007.97;5153503;27;20274;-50
2022/09/05 04:01:05;;;;;;;3.65;3.45;;;;;;;15.64;100.00;97005.44;5158336;27;20230;-49
2022/09/05 04:03:39;;;;;;;3.97;3.58;;;;;;;15.67;100.00;97010.44;5155017;27;20280;-50
2022/09/05 04:06:08;;;;;;;3.92;3.10;;;;;;;15.72;100.00;97000.13;5155000;27;20210;-49
2022/09/05 04:08:42;;;;;;;3.80;3.50;;;;;;;15.63;100.00;97007.28;5159080;27;20588;-50
2022/09/05 04:11:15;;;;;;;3.45;3.13;;;;;;;15.65;100.00;97009.78;5158699;27;20671;-51
2022/09/05 04:13:46;;;;;;;3.10;2.90;;;;;;;15.64;100.00;97008.97;5138616;27;20227;-48
2022/09/05 04:16:16;;;;;;;3.90;3.30;;;;;;;15.64;100.00;97008.97;5139699;27;20283;-50
2022/09/05 04:18:45;;;;;;;3.83;3.63;;;;;;;15.63;100.00;97017.09;5149911;27;20278;-49
2022/09/05 04:21:16;;;;;;;4.18;3.13;;;;;;;15.64;100.00;97016.97;5159402;27;20242;-48
2022/09/05 04:23:57;;;;;;;3.40;3.10;;;;;;;15.67;100.00;97016.63;5172007;27;20226;-49
2022/09/05 04:26:44;;;;;;;4.57;2.97;;;;;;;15.67;100.00;97029.94;5179781;27;20196;-51
2022/09/05 04:29:17;;;;;;;3.80;3.50;;;;;;;15.73;100.00;97031.94;5177101;27;20199;-48
2022/09/05 04:31:49;;;;;;;5.20;3.40;;;;;;;15.69;100.00;97030.63;5138532;27;20262;-50
2022/09/05 04:34:27;;;;;;;3.90;3.58;;;;;;;15.67;100.00;97032.63;5138687;27;20207;-49
2022/09/05 04:37:01;;;;;;;3.75;3.45;;;;;;;15.70;100.00;97040.28;5138184;27;20232;-51
2022/09/05 04:39:30;;;;;;;3.60;3.40;;;;;;;15.69;100.00;97035.97;5148063;27;20651;-51
2022/09/05 04:42:06;;;;;;;3.88;3.53;;;;;;;15.66;100.00;97044.28;5158772;27;20214;-50
2022/09/05 04:44:36;;;;;;;3.70;3.47;;;;;;;15.63;100.00;97041.94;5149161;27;20196;-50
2022/09/05 04:47:09;;;;;;;3.70;3.50;;;;;;;15.62;100.00;97048.28;5155998;27;20748;-51
2022/09/05 04:49:39;;;;;;;5.15;3.58;;;;;;;15.62;100.00;97047.44;5157597;27;20223;-50
2022/09/05 04:52:35;;;;;;;4.57;4.18;;;;;;;15.61;100.00;97051.94;5158485;27;20278;-51
2022/09/05 04:55:07;;;;;;;4.10;3.80;;;;;;;15.60;100.00;97055.59;5140063;27;20279;-51
2022/09/05 04:57:37;;;;;;;4.18;3.88;;;;;;;15.59;100.00;97063.78;5149477;27;20323;-51
2022/09/05 05:00:06;;;;;;;7.07;3.90;;;;;;;15.54;100.00;97061.59;5157916;27;20671;-50
2022/09/05 05:02:37;;;;;;;5.83;4.47;;;;;;;15.55;100.00;97057.94;5153108;27;20223;-52
2022/09/05 05:05:06;;;;;;;4.63;3.73;;;;;;;15.56;100.00;97072.91;5158472;27;20223;-50
2022/09/05 05:07:40;;;;;;;4.65;4.25;;;;;;;15.58;100.00;97070.94;5157936;27;20251;-51
2022/09/05 05:10:10;;;;;;;4.65;4.00;;;;;;;15.56;100.00;97075.59;5158188;27;20209;-50
2022/09/05 05:12:43;;;;;;;4.13;3.70;;;;;;;15.58;100.00;97078.09;5159608;27;20231;-52
2022/09/05 05:15:12;;;;;;;5.20;3.90;;;;;;;15.56;100.00;97094.25;5145829;27;20245;-51
2022/09/05 05:17:43;;;;;;;4.10;3.80;;;;;;;15.60;100.00;97087.59;5157995;27;20235;-49
2022/09/05 05:20:15;;;;;;;3.77;3.47;;;;;;;15.64;100.00;97088.09;5150408;27;20204;-51
2022/09/05 05:22:55;;;;;;;4.28;3.75;;;;;;;15.67;100.00;97093.09;5142865;27;20303;-50
2022/09/05 05:25:25;;;;;;;4.57;4.28;;;;;;;15.70;100.00;97095.44;5159127;27;20256;-49
2022/09/05 05:28:03;;;;;;;4.72;3.80;;;;;;;15.71;100.00;97095.28;5143761;27;20223;-50
2022/09/05 05:30:33;;;;;;;5.30;4.10;;;;;;;15.76;100.00;97095.66;5143779;27;20204;-51
2022/09/05 05:33:02;;;;;;;4.35;4.00;;;;;;;15.76;100.00;97097.47;5144671;27;20238;-51
2022/09/05 05:35:32;;;;;;;4.72;3.53;;;;;;;15.79;100.00;97095.31;5157447;27;20246;-50
2022/09/05 05:38:09;;;;;;;5.07;3.97;;;;;;;15.83;100.00;97112.66;5157443;27;20311;-50
2022/09/05 05:40:39;;;;;;;5.40;3.90;;;;;;;15.87;100.00;97095.31;5158075;27;20227;-50
2022/09/05 05:43:14;;;;;;;4.60;4.15;;;;;;;15.91;100.00;97107.31;5157885;27;20272;-50
2022/09/05 05:45:40;;;;;;;5.00;4.00;;;;;;;15.93;100.00;97109.81;5155582;27;20523;-51
2022/09/05 05:48:26;;;;;;;4.55;4.20;;;;;;;15.98;100.00;97117.34;5157715;27;20315;-50
2022/09/05 05:51:12;;;;;;;4.30;4.00;;;;;;;16.03;100.00;97115.00;5157806;27;20282;-50
2022/09/05 05:53:47;;;;;;;4.55;4.10;;;;;;;16.08;100.00;97118.84;5153334;27;20617;-51
2022/09/05 05:59:29;;;;;;;4.13;3.72;;;;;;;16.15;100.00;97135.88;5092511;27;20536;-50
2022/09/05 06:02:24;;;;;;;5.53;4.20;;;;;;;16.16;100.00;97136.69;5089016;28;20597;-50
2022/09/05 06:05:15;;;;;;;4.03;3.72;;;;;;;16.17;100.00;97143.69;5092019;28;20237;-51
2022/09/05 06:07:57;;;;;;;4.95;4.55;;;;;;;16.19;100.00;97136.38;5094187;28;20220;-49
2022/09/05 06:10:58;;;;;;;5.63;3.88;;;;;;;16.79;100.00;97142.22;5073160;28;20287;-51
2022/09/05 06:14:07;;;;;;;5.00;4.30;;;;;;;17.87;100.00;97134.31;5092112;28;20620;-52
2022/09/05 06:17:12;;;;;;;5.60;5.10;;;;;;;18.51;100.00;97140.25;5086958;28;20288;-51
2022/09/05 06:19:59;;;;;;;6.68;6.00;;;;;;;19.36;99.81;97151.44;5086091;28;20248;-51
2022/09/05 06:22:50;;;;;;;9.20;5.80;;;;;;;20.03;92.56;97148.59;5087938;28;20294;-50
2022/09/05 06:26:01;;;;;;;6.30;5.00;;;;;;;20.43;89.91;97134.59;5091902;28;20241;-49
2022/09/05 06:28:36;;;;;;;6.07;5.00;;;;;;;21.29;86.31;97136.13;5091695;28;20584;-51
2022/09/05 06:31:16;;;;;;;7.80;5.10;;;;;;;21.51;85.33;97134.97;5080136;28;20582;-50
2022/09/05 06:33:54;;;;;;;7.10;5.30;;;;;;;21.51;83.44;97134.97;5091563;28;20697;-51
2022/09/05 06:36:35;;;;;;;5.47;4.88;;;;;;;21.90;84.54;97128.09;5091988;28;20588;-50
2022/09/05 06:39:11;;;;;;;7.78;4.88;;;;;;;22.21;80.59;97133.84;5078075;28;20312;-52
2022/09/05 06:41:49;;;;;;;4.97;4.38;;;;;;;22.50;81.23;97128.06;5105960;28;20227;-52
2022/09/05 06:44:33;;;;;;;5.55;4.95;;;;;;;22.67;77.05;97125.84;5114336;28;20182;-52
2022/09/05 06:47:05;;;;;;;5.38;4.40;;;;;;;22.97;76.31;97131.63;5110918;28;20226;-50
2022/09/05 06:49:55;;;;;;;6.97;5.07;;;;;;;22.72;75.75;97134.13;5104583;28;20262;-51
2022/09/05 06:52:40;;;;;;;10.50;5.40;;;;;;;23.06;75.28;97131.19;5091610;28;20245;-50
2022/09/05 06:55:36;;;;;;;6.00;5.13;;;;;;;23.27;73.43;97124.75;5091260;28;20702;-50
2022/09/05 06:58:41;;;;;;;5.55;4.65;;;;;;;23.37;75.03;97133.25;5083771;28;20728;-52
2022/09/05 07:01:10;;;;;;;5.35;4.95;;;;;;;23.45;73.47;97124.94;5082967;28;20293;-53
2022/09/05 07:03:51;;;;;;;7.00;5.63;;;;;;;23.40;74.63;97138.22;5091731;28;20212;-50
2022/09/05 07:06:27;;;;;;;7.63;4.70;;;;;;;23.33;72.93;97132.00;5091468;28;20237;-51
2022/09/05 07:09:04;;;;;;;5.13;4.68;;;;;;;22.82;77.00;97137.22;5086619;28;20605;-51
2022/09/05 07:11:35;;;;;;;5.25;4.63;;;;;;;22.43;76.00;97140.69;5077624;28;20274;-55
2022/09/05 07:14:04;;;;;;;5.15;4.65;;;;;;;22.12;78.17;97138.56;5077201;28;20202;-52
2022/09/05 07:16:41;;;;;;;5.70;4.80;;;;;;;21.73;80.64;97136.53;5077838;28;20293;-58
2022/09/05 07:19:26;;;;;;;4.78;4.38;;;;;;;21.35;83.97;97143.38;5078221;28;20301;-57
2022/09/05 07:22:07;;;;;;;5.20;4.82;;;;;;;21.18;87.30;97144.75;5068692;28;20246;-57
2022/09/05 07:24:36;;;;;;;9.18;5.00;;;;;;;21.02;88.56;97145.81;5095540;28;20222;-57
2022/09/05 07:27:05;;;;;;;4.72;4.38;;;;;;;20.97;88.97;97148.28;5079394;28;20245;-56
2022/09/05 07:29:34;;;;;;;5.40;4.75;;;;;;;20.94;89.30;97153.22;5098091;28;20191;-56
2022/09/05 07:32:04;;;;;;;7.25;4.88;;;;;;;21.16;88.28;97150.31;5088349;28;20179;-52
2022/09/05 07:34:32;;;;;;;7.03;5.13;;;;;;;21.35;89.52;97151.47;5098892;28;20209;-52
2022/09/05 07:37:04;;;;;;;4.75;4.35;;;;;;;21.74;86.99;97157.06;5097492;28;20217;-53
2022/09/05 07:39:38;;;;;;;5.07;4.68;;;;;;;22.10;87.20;97156.81;5089327;28;20235;-53
2022/09/05 07:42:09;;;;;;;5.15;4.70;;;;;;;22.30;82.81;97152.28;5079683;28;20175;-53
2022/09/05 07:44:38;;;;;;;5.63;4.25;;;;;;;22.71;84.87;97157.56;5087229;28;20195;-53
2022/09/05 07:47:07;;;;;;;5.18;4.78;;;;;;;22.75;81.28;97149.88;5071031;28;20297;-52
2022/09/05 07:49:36;;;;;;;5.05;4.70;;;;;;;22.72;79.29;97156.53;5066902;28;20230;-53
2022/09/05 07:52:07;;;;;;;4.82;4.40;;;;;;;22.68;80.26;97157.13;5076249;28;20230;-52
2022/09/05 07:54:40;;;;;;;4.85;4.45;;;;;;;22.45;80.10;97160.22;5066335;28;20207;-52
2022/09/05 07:57:11;;;;;;;5.70;4.30;;;;;;;22.54;81.11;97158.13;5066274;28;20230;-53
2022/09/05 07:59:39;;;;;;;5.65;4.28;;;;;;;22.53;82.19;97160.00;5076792;28;20202;-53
2022/09/05 08:02:09;;;;;;;7.25;4.90;;;;;;;22.53;82.77;97161.88;5055857;28;20223;-54
2022/09/05 08:04:38;;;;;;;5.65;5.15;;;;;;;22.53;81.20;97161.88;5070256;28;20276;-55
2022/09/05 08:07:07;;;;;;;4.97;4.25;;;;;;;22.50;80.83;97162.25;5076128;28;20554;-51
2022/09/05 08:09:38;;;;;;;6.90;4.63;;;;;;;22.28;81.79;97164.31;5075746;28;20637;-54
2022/09/05 08:12:10;;;;;;;5.60;4.43;;;;;;;22.33;83.19;97172.59;5076148;28;20202;-53
2022/09/05 08:14:44;;;;;;;5.70;4.57;;;;;;;22.34;83.16;97179.66;5076357;28;20256;-54
2022/09/05 08:17:17;;;;;;;4.75;4.45;;;;;;;22.21;84.27;97180.44;5066232;28;20213;-53
2022/09/05 08:19:57;;;;;;;6.57;4.55;;;;;;;22.16;86.21;97182.09;5073832;28;20290;-54
2022/09/05 08:22:29;;;;;;;4.88;4.45;;;;;;;21.90;84.68;97181.97;5075206;28;20243;-53
2022/09/05 08:25:01;;;;;;;10.55;5.15;;;;;;;21.70;85.33;97188.09;5076236;28;20210;-53
2022/09/05 08:27:31;;;;;;;6.65;5.20;;;;;;;21.66;87.99;97189.53;5075997;28;20285;-53
2022/09/05 08:30:06;;;;;;;6.90;4.82;;;;;;;21.61;88.26;97191.97;5076270;28;20264;-52
2022/09/05 08:32:40;;;;;;;5.68;5.18;;;;;;;21.40;87.13;97191.25;5073704;28;20650;-53
2022/09/05 08:35:16;;;;;;;6.68;5.88;;;;;;;21.23;88.18;97190.69;5066049;28;20233;-51
2022/09/05 08:37:46;;;;;;;5.40;5.00;;;;;;;21.23;91.22;97188.00;5075321;28;20648;-53
2022/09/05 08:40:19;;;;;;;6.03;5.32;;;;;;;21.20;93.29;97183.00;5075585;28;20199;-53
2022/09/05 08:42:49;;;;;;;7.00;5.13;;;;;;;21.14;94.13;97183.81;5075107;28;20232;-53
2022/09/05 08:45:19;;;;;;;5.80;5.20;;;;;;;21.04;93.72;97180.59;5074719;28;20267;-54
2022/09/05 08:47:53;;;;;;;7.90;5.28;;;;;;;21.01;93.53;97181.00;5075347;28;20245;-53
2022/09/05 08:50:28;;;;;;;8.27;5.00;;;;;;;20.96;94.62;97172.66;5075210;28;20587;-53
2022/09/05 08:53:08;;;;;;;6.47;5.50;;;;;;;20.92;96.39;97171.41;5075233;28;20202;-53
2022/09/05 08:55:44;;;;;;;5.70;5.20;;;;;;;20.92;97.25;97171.41;5074501;28;20232;-52
2022/09/05 08:58:28;;;;;;;7.63;5.30;;;;;;;20.92;98.28;97168.69;5075053;28;20261;-54
2022/09/05 09:00:59;;;;;;;5.72;5.22;;;;;;;20.88;98.77;97173.63;5088006;28;20234;-53
2022/09/05 09:03:29;;;;;;;5.55;5.05;;;;;;;20.91;99.17;97180.47;5082772;28;20260;-54
2022/09/05 09:06:22;;;;;;;5.38;4.88;;;;;;;20.90;98.04;97179.69;5077450;28;20296;-53
2022/09/05 09:09:09;;;;;;;5.63;5.03;;;;;;;20.89;96.31;97174.47;5074452;28;20305;-53
2022/09/05 09:11:38;;;;;;;5.47;4.82;;;;;;;20.90;94.35;97173.47;5061602;28;20722;-52
2022/09/05 09:14:26;;;;;;;4.95;4.45;;;;;;;20.91;94.85;97177.78;5075282;28;20263;-53
2022/09/05 09:17:00;;;;;;;6.13;4.82;;;;;;;20.90;93.96;97168.09;5066910;28;20199;-54
2022/09/05 09:19:42;;;;;;;5.38;4.82;;;;;;;20.92;94.37;97166.84;5070742;28;20566;-54
2022/09/05 09:22:17;;;;;;;6.22;5.22;;;;;;;20.90;92.53;97168.09;5074715;28;20214;-53
2022/09/05 09:24:50;;;;;;;5.68;5.18;;;;;;;20.91;92.85;97169.72;5074570;28;20209;-53
2022/09/05 09:27:26;;;;;;;5.18;4.75;;;;;;;20.91;92.83;97169.72;5074911;28;20264;-53
2022/09/05 09:29:58;;;;;;;5.32;4.75;;;;;;;20.88;93.56;97164.75;5075065;28;20267;-52
2022/09/05 09:32:27;;;;;;;5.40;4.90;;;;;;;20.87;93.59;97153.16;5074769;28;20538;-53
2022/09/05 09:34:55;;;;;;;4.70;4.30;;;;;;;20.88;94.55;97154.81;5066401;28;20203;-52
2022/09/05 09:37:45;;;;;;;4.05;3.58;;;;;;;20.87;93.99;97155.03;5054369;28;20206;-52
2022/09/05 09:40:37;;;;;;;4.03;3.67;;;;;;;20.84;95.27;97159.75;5054374;28;20654;-53
2022/09/05 09:43:09;;;;;;;4.20;3.90;;;;;;;20.85;95.29;97158.75;5063578;28;20263;-52
2022/09/05 09:45:50;;;;;;;4.05;3.75;;;;;;;20.85;94.19;97156.06;5072323;28;20242;-53
2022/09/05 09:48:41;;;;;;;6.85;4.13;;;;;;;20.87;94.47;97155.03;5068870;28;20582;-54
2022/09/05 09:51:21;;;;;;;4.32;3.92;;;;;;;20.84;90.57;97154.38;5077304;28;20208;-52
2022/09/05 09:54:03;;;;;;;5.22;3.95;;;;;;;20.84;90.57;97143.63;5074527;28;20202;-53
2022/09/05 09:57:06;;;;;;;4.07;3.78;;;;;;;20.89;89.93;97147.59;5065957;28;20574;-53
2022/09/05 09:59:56;;;;;;;4.20;3.90;;;;;;;20.98;90.14;97141.88;5074149;28;20605;-53
2022/09/05 10:02:51;;;;;;;6.55;3.72;;;;;;;21.05;90.28;97152.66;5062795;28;20202;-51
2022/09/05 10:05:58;;;;;;;3.40;3.20;;;;;;;21.12;89.89;97154.41;5012015;28;20253;-52
2022/09/05 10:08:45;;;;;;;3.67;3.28;;;;;;;21.20;89.85;97153.44;5065560;28;20217;-53
2022/09/05 10:11:39;;;;;;;4.90;3.60;;;;;;;21.29;90.21;97153.06;5073942;28;20191;-53
2022/09/05 10:14:34;;;;;;;5.00;3.72;;;;;;;21.38;89.96;97140.28;5068922;28;20297;-55
2022/09/05 10:17:22;;;;;;;4.25;3.42;;;;;;;21.51;89.96;97137.66;5063390;28;20210;-52
2022/09/05 10:20:28;;;;;;;4.65;3.42;;;;;;;21.65;90.03;97135.88;5073707;28;20385;-52
2022/09/05 10:23:28;;;;;;;4.72;3.80;;;;;;;21.80;90.55;97129.31;5054738;28;20206;-54
2022/09/05 10:26:40;;;;;;;4.13;3.80;;;;;;;22.01;88.93;97130.25;5074138;28;20264;-53
2022/09/05 10:29:11;;;;;;;7.07;4.00;;;;;;;22.20;87.07;97134.88;5074326;28;20590;-53
2022/09/05 10:31:55;;;;;;;4.65;3.75;;;;;;;22.50;86.82;97127.22;5074112;28;20218;-54
2022/09/05 10:34:24;;;;;;;5.53;3.63;;;;;;;22.64;81.73;97121.63;5074089;28;20332;-54
2022/09/05 10:36:53;;;;;;;3.80;3.50;;;;;;;22.95;82.77;97118.38;5074331;28;20242;-52
2022/09/05 10:39:22;;;;;;;3.40;3.20;;;;;;;23.30;81.87;97129.72;5063819;28;20241;-52
2022/09/05 10:41:57;;;;;;;5.30;3.80;;;;;;;23.41;76.97;97117.44;5074523;28;20234;-54
2022/09/05 10:44:39;;;;;;;3.58;3.28;;;;;;;23.55;76.96;97119.94;5076100;28;20205;-53
2022/09/05 10:47:29;;;;;;;4.75;3.70;;;;;;;23.63;75.59;97116.97;5077573;28;20201;-53
2022/09/05 10:50:02;;;;;;;5.10;3.50;;;;;;;23.73;73.99;97117.38;5078070;28;20215;-53
2022/09/05 10:52:35;;;;;;;5.72;3.17;;;;;;;23.98;73.87;97105.81;5065366;28;20209;-52
2022/09/05 10:55:17;;;;;;;3.95;3.65;;;;;;;24.14;73.09;97094.53;5077667;28;20225;-54
2022/09/05 10:57:56;;;;;;;3.70;3.38;;;;;;;24.45;71.70;97099.94;5068999;28;20244;-52
2022/09/05 11:00:47;;;;;;;4.75;3.40;;;;;;;24.81;70.71;97088.41;5077565;28;20277;-53
2022/09/05 11:03:22;;;;;;;4.20;3.38;;;;;;;24.96;68.92;97080.00;5077713;28;20282;-54
2022/09/05 11:05:57;;;;;;;6.68;3.50;;;;;;;25.23;69.32;97079.50;5078044;28;20267;-52
2022/09/05 11:08:30;;;;;;;3.53;3.30;;;;;;;25.52;68.60;97069.81;5077335;28;20590;-54
2022/09/05 11:11:04;;;;;;;4.20;3.55;;;;;;;25.76;67.30;97073.47;5076872;28;20194;-53
2022/09/05 11:13:46;;;;;;;5.32;3.45;;;;;;;25.65;66.74;97064.25;5072537;28;20724;-54
2022/09/05 11:16:24;;;;;;;10.57;3.50;;;;;;;25.72;67.53;97059.56;5094766;28;20293;-53
2022/09/05 11:18:56;;;;;;;3.75;3.45;;;;;;;25.98;66.06;97065.69;5099678;28;20229;-53
2022/09/05 11:21:29;;;;;;;3.40;3.10;;;;;;;26.35;66.47;97055.59;5087557;28;20199;-52
2022/09/05 11:23:57;;;;;;;3.63;3.30;;;;;;;26.66;65.91;97053.41;5057795;28;20211;-52
2022/09/05 11:26:33;;;;;;;3.95;3.58;;;;;;;26.63;62.08;97053.88;5057431;28;20203;-54
2022/09/05 11:29:06;;;;;;;4.35;3.60;;;;;;;26.59;60.96;97060.84;5070361;28;20198;-53
2022/09/05 11:31:48;;;;;;;4.55;3.53;;;;;;;26.62;63.29;97057.66;5064814;28;20212;-54
2022/09/05 11:34:57;;;;;;;3.80;3.50;;;;;;;26.61;63.71;97053.28;5076954;28;20252;-54
2022/09/05 11:37:36;;;;;;;5.32;3.22;;;;;;;26.58;63.09;97048.31;5077036;28;20206;-54
2022/09/05 11:40:30;;;;;;;4.38;3.78;;;;;;;26.41;63.14;97041.09;5076935;28;20218;-53
2022/09/05 11:43:09;;;;;;;3.40;2.95;;;;;;;26.31;62.89;97033.53;5061521;28;20214;-53
2022/09/05 11:45:54;;;;;;;4.65;3.58;;;;;;;26.47;64.63;97030.13;5074234;28;20203;-52
2022/09/05 11:48:43;;;;;;;3.40;3.10;;;;;;;26.46;63.59;97033.09;5070263;28;20206;-53
2022/09/05 11:51:37;;;;;;;3.55;3.28;;;;;;;26.41;62.86;97028.38;5076848;28;20347;-51
2022/09/05 11:54:34;;;;;;;3.70;3.08;;;;;;;26.38;60.51;97026.13;5077347;28;20298;-54
2022/09/05 11:57:13;;;;;;;3.55;3.22;;;;;;;26.75;60.17;97031.38;5067507;28;20249;-54
2022/09/05 12:00:13;;;;;;;6.35;3.17;;;;;;;26.92;60.99;97022.31;5076687;28;20309;-53
2022/09/05 12:02:57;;;;;;;3.47;3.00;;;;;;;27.03;60.46;97018.72;5076282;28;20198;-54
2022/09/05 12:05:36;;;;;;;3.58;2.95;;;;;;;27.18;60.13;97013.66;5069273;28;20289;-54
2022/09/05 12:08:08;;;;;;;3.97;3.10;;;;;;;27.46;59.46;97015.63;5055945;28;20298;-53
2022/09/05 12:10:43;;;;;;;5.07;3.53;;;;;;;27.55;56.57;97010.66;5064869;28;20199;-53
2022/09/05 12:13:26;;;;;;;3.25;2.95;;;;;;;27.78;57.18;97009.72;5075914;28;20252;-53
2022/09/05 12:15:54;;;;;;;3.63;3.17;;;;;;;27.94;58.44;97008.97;5076122;28;20203;-52
2022/09/05 12:18:27;;;;;;;3.58;3.20;;;;;;;28.12;57.35;96997.91;5075855;28;20639;-55
2022/09/05 12:21:11;;;;;;;4.07;3.47;;;;;;;28.18;56.97;96996.91;5075952;28;20671;-52
2022/09/05 12:23:49;;;;;;;3.22;3.03;;;;;;;27.74;54.65;96997.72;5074834;28;20202;-54
2022/09/05 12:26:20;;;;;;;7.28;3.30;;;;;;;27.87;55.65;96990.09;5075931;28;20206;-53